Terminal Aerodrome Forecast
Issued by NWS Wilmington, OH

Current Version | Previous Version | Text Only | Print | Product List | Glossary Off
Versions: 1 2 3 4 5 6 7 8 9 10 11 12 13 14 15

000
FTUS41 KILN 262100 AAA
TAFCMH
TAF AMD
KCMH 262100Z 2621/2718 02006KT P6SM FEW035 OVC045
     FM270000 01003KT P6SM BKN045=

USA.gov is the U.S. government's official web portal to all federal, state and local government web resources and services.